Terminal Aerodrome Forecast
Issued by NWS Wilmington, NC

Home | Current Version | Previous Version | Text Only | Print | Product List | Glossary On
Versions: 1 2 3 4 5 6 7 8 9 10 11 12 13 14 15 16 17 18 19
000
FTUS42 KILM 271120
TAFLBT
TAF
KLBT 271120Z 2712/2812 19005KT P6SM SCT020 BKN050
     FM271300 20004KT P6SM OVC025
     FM271500 21008KT P6SM VCSH SCT025 BKN060
      TEMPO 2717/2721 4SM SHRA BKN025
     FM272100 18008KT P6SM SCT025 BKN050 OVC100
     FM280200 18004KT P6SM BKN250=

USA.gov is the U.S. government's official web portal to all federal, state and local government web resources and services.